Time;durP1;ratioP1;P1;durP2;ratioP2;P2;SDS_P1;SDS_P2;PMS_P1;PMS_P2;Temp;Humidity;BMP_temperature;BMP_pressure;BME280_temperature;BME280_humidity;BME280_pressure;Samples;Min_cycle;Max_cycle;Signal;HPM_P1;HPM_P2
2022/12/25 00:01:52;;;;;;;13.43;12.38;;;;;;;;;;5034447;28;20454;-86
2022/12/25 00:04:18;;;;;;;13.68;12.57;;;;;;;;;;5035307;28;20411;-86
2022/12/25 00:06:44;;;;;;;15.07;13.77;;;;;;;;;;5033631;28;20407;-87
2022/12/25 00:09:10;;;;;;;14.30;13.00;;;;;;;;;;5033371;28;20383;-85
2022/12/25 00:11:37;;;;;;;13.10;12.02;;;;;;;;;;5032550;28;20445;-87
2022/12/25 00:14:03;;;;;;;34.88;26.20;;;;;;;;;;5035067;28;20379;-86
2022/12/25 00:16:29;;;;;;;32.88;26.42;;;;;;;;;;5024203;28;20401;-84
2022/12/25 00:18:57;;;;;;;14.75;13.48;;;;;;;;;;5033964;28;20407;-86
2022/12/25 00:21:23;;;;;;;17.90;16.20;;;;;;;;;;5034964;28;21155;-86
2022/12/25 00:23:56;;;;;;;13.88;12.73;;;;;;;;;;5038403;28;20489;-87
2022/12/25 00:26:22;;;;;;;20.48;18.27;;;;;;;;;;5034793;28;20402;-86
2022/12/25 00:28:51;;;;;;;18.27;16.58;;;;;;;;;;5037503;28;20478;-85
2022/12/25 00:31:17;;;;;;;16.75;15.15;;;;;;;;;;5021797;28;20379;-86
2022/12/25 00:33:44;;;;;;;15.93;14.55;;;;;;;;;;5037839;28;20383;-86
2022/12/25 00:36:11;;;;;;;19.98;17.83;;;;;;;;;;5033645;28;20387;-85
2022/12/25 00:38:38;;;;;;;14.95;13.75;;;;;;;;;;5034511;28;20900;-86
2022/12/25 00:44:12;;;;;;;14.65;13.45;;;;;;;;;;5034191;28;20378;-86
2022/12/25 00:46:38;;;;;;;15.02;13.82;;;;;;;;;;5039261;28;20420;-84
2022/12/25 00:49:04;;;;;;;15.88;14.55;;;;;;;;;;5034171;28;20409;-85
2022/12/25 00:51:30;;;;;;;16.55;15.10;;;;;;;;;;5032430;28;20391;-86
2022/12/25 00:53:56;;;;;;;17.15;15.50;;;;;;;;;;5032467;28;20780;-84
2022/12/25 00:56:22;;;;;;;18.33;16.73;;;;;;;;;;5031305;28;20403;-85
2022/12/25 00:58:48;;;;;;;16.67;15.13;;;;;;;;;;5033889;28;20415;-86
2022/12/25 01:01:14;;;;;;;17.25;15.75;;;;;;;;;;5035396;28;20414;-86
2022/12/25 01:03:40;;;;;;;17.15;15.65;;;;;;;;;;5035707;28;20383;-85
2022/12/25 01:06:07;;;;;;;15.50;14.20;;;;;;;;;;5033817;28;20396;-84
2022/12/25 01:08:37;;;;;;;15.85;14.45;;;;;;;;;;5032235;28;20470;-85
2022/12/25 01:11:05;;;;;;;15.43;14.13;;;;;;;;;;5017183;28;20415;-84
2022/12/25 01:13:31;;;;;;;16.00;14.70;;;;;;;;;;5016418;28;20931;-85
2022/12/25 01:15:57;;;;;;;16.48;15.00;;;;;;;;;;5034148;28;20898;-86
2022/12/25 01:18:24;;;;;;;16.77;15.27;;;;;;;;;;5024563;28;20429;-86
2022/12/25 01:20:50;;;;;;;15.60;14.23;;;;;;;;;;5032769;28;20394;-84
2022/12/25 01:23:16;;;;;;;15.90;14.40;;;;;;;;;;5036154;28;20444;-85
2022/12/25 01:25:42;;;;;;;15.82;14.48;;;;;;;;;;5035620;28;20379;-85
2022/12/25 01:28:08;;;;;;;16.33;14.93;;;;;;;;;;5034275;28;20394;-83
2022/12/25 01:30:34;;;;;;;16.42;14.93;;;;;;;;;;5033630;28;20833;-87
2022/12/25 01:33:00;;;;;;;15.50;14.20;;;;;;;;;;5022131;28;20379;-84
2022/12/25 01:35:26;;;;;;;15.65;14.25;;;;;;;;;;5035596;28;21026;-85
2022/12/25 01:37:53;;;;;;;16.53;15.13;;;;;;;;;;5032421;28;20467;-85
2022/12/25 01:40:19;;;;;;;16.55;15.05;;;;;;;;;;5017836;28;20920;-86
2022/12/25 01:42:45;;;;;;;16.88;15.38;;;;;;;;;;5031709;28;20391;-84
2022/12/25 01:45:30;;;;;;;17.50;15.90;;;;;;;;;;5033372;28;20392;-85
2022/12/25 01:47:56;;;;;;;17.30;15.80;;;;;;;;;;5032080;28;20382;-85
2022/12/25 01:50:22;;;;;;;17.50;16.00;;;;;;;;;;5033013;28;20458;-85
2022/12/25 01:52:48;;;;;;;17.52;16.02;;;;;;;;;;5032282;28;20930;-85
2022/12/25 01:55:14;;;;;;;17.27;15.77;;;;;;;;;;5030837;28;20387;-85
2022/12/25 01:57:40;;;;;;;18.33;16.63;;;;;;;;;;5033357;28;20377;-85
2022/12/25 02:00:07;;;;;;;18.48;16.77;;;;;;;;;;5032186;28;20426;-87
2022/12/25 02:02:33;;;;;;;18.45;16.65;;;;;;;;;;5034350;28;20396;-85
2022/12/25 02:05:02;;;;;;;18.95;17.15;;;;;;;;;;5016961;28;20410;-84
2022/12/25 02:07:29;;;;;;;19.20;17.40;;;;;;;;;;5032299;28;20387;-86
2022/12/25 02:09:55;;;;;;;19.48;17.67;;;;;;;;;;5031252;28;20445;-86
2022/12/25 02:12:25;;;;;;;19.90;17.92;;;;;;;;;;5030764;28;20379;-85
2022/12/25 02:14:52;;;;;;;19.00;17.25;;;;;;;;;;5030413;28;20871;-86
2022/12/25 02:17:37;;;;;;;20.80;18.63;;;;;;;;;;5032593;28;20383;-87
2022/12/25 02:20:03;;;;;;;19.45;17.60;;;;;;;;;;5031954;28;20746;-85
2022/12/25 02:22:32;;;;;;;18.57;16.77;;;;;;;;;;5031742;28;20406;-86
2022/12/25 02:25:04;;;;;;;18.97;17.17;;;;;;;;;;5037096;28;20376;-86
2022/12/25 02:27:33;;;;;;;18.80;17.02;;;;;;;;;;5032693;28;20382;-86
2022/12/25 02:30:01;;;;;;;18.50;16.80;;;;;;;;;;5033698;28;20391;-86
2022/12/25 02:32:34;;;;;;;18.90;17.00;;;;;;;;;;5034897;28;20379;-85
2022/12/25 02:35:03;;;;;;;18.70;16.98;;;;;;;;;;5038348;28;20381;-86
2022/12/25 02:37:33;;;;;;;19.30;17.40;;;;;;;;;;5039254;28;20383;-86
2022/12/25 02:40:22;;;;;;;19.60;17.70;;;;;;;;;;5017597;28;20407;-86
2022/12/25 03:08:13;;;;;;;19.43;17.63;;;;;;;;;;5036464;28;20464;-86
2022/12/25 03:13:32;;;;;;;22.70;20.30;;;;;;;;;;5034319;28;20382;-84
2022/12/25 03:18:43;;;;;;;22.00;19.70;;;;;;;;;;5035651;28;20466;-85
2022/12/25 03:26:58;;;;;;;21.20;19.00;;;;;;;;;;4980657;28;20502;-84
2022/12/25 03:32:19;;;;;;;20.73;18.63;;;;;;;;;;5039886;28;20479;-86
2022/12/25 04:38:01;;;;;;;20.67;18.60;;;;;;;;;;5052770;28;20431;-85
2022/12/25 04:40:27;;;;;;;19.13;17.33;;;;;;;;;;5053303;28;20508;-86
2022/12/25 04:42:53;;;;;;;18.73;16.92;;;;;;;;;;5050592;28;20456;-86
2022/12/25 04:45:19;;;;;;;22.45;19.92;;;;;;;;;;5053556;28;20772;-86
2022/12/25 04:47:45;;;;;;;27.67;22.65;;;;;;;;;;5044813;28;20374;-86
2022/12/25 04:50:11;;;;;;;30.77;24.35;;;;;;;;;;5031928;28;20712;-85
2022/12/25 04:52:38;;;;;;;19.83;17.88;;;;;;;;;;5053193;28;20413;-85
2022/12/25 04:55:05;;;;;;;20.63;18.48;;;;;;;;;;5053182;28;20386;-86
2022/12/25 04:57:31;;;;;;;22.07;19.67;;;;;;;;;;5052425;28;20378;-86
2022/12/25 04:59:57;;;;;;;21.35;19.05;;;;;;;;;;5043637;28;20493;-86
2022/12/25 05:02:23;;;;;;;20.42;18.33;;;;;;;;;;5052955;28;20418;-85
2022/12/25 05:04:49;;;;;;;28.17;23.13;;;;;;;;;;5052968;28;20952;-85
2022/12/25 05:07:15;;;;;;;26.30;22.15;;;;;;;;;;5035239;28;20386;-86
2022/12/25 05:09:41;;;;;;;22.80;20.40;;;;;;;;;;5052520;28;20393;-85
2022/12/25 05:12:08;;;;;;;22.00;19.70;;;;;;;;;;5052929;28;20396;-85
2022/12/25 05:14:34;;;;;;;23.23;20.20;;;;;;;;;;5052426;28;20385;-85
2022/12/25 05:17:00;;;;;;;24.40;21.52;;;;;;;;;;5034476;28;20822;-85
2022/12/25 05:19:26;;;;;;;28.02;22.92;;;;;;;;;;5053275;28;20409;-86
2022/12/25 05:21:52;;;;;;;24.20;21.55;;;;;;;;;;5045037;28;20764;-85
2022/12/25 05:24:18;;;;;;;31.42;24.52;;;;;;;;;;5041214;28;20383;-85
2022/12/25 05:26:44;;;;;;;23.23;20.13;;;;;;;;;;5046391;28;20412;-86
2022/12/25 05:29:10;;;;;;;19.33;17.35;;;;;;;;;;5050335;28;20381;-84
2022/12/25 05:31:36;;;;;;;26.52;21.95;;;;;;;;;;5050883;28;20414;-86
2022/12/25 05:34:02;;;;;;;27.40;21.57;;;;;;;;;;5051324;28;20885;-85
2022/12/25 05:36:28;;;;;;;19.27;17.27;;;;;;;;;;5051093;28;20397;-85
2022/12/25 05:38:54;;;;;;;20.23;18.13;;;;;;;;;;5034020;28;20779;-85
2022/12/25 05:41:20;;;;;;;18.98;17.08;;;;;;;;;;5052029;28;20378;-85
2022/12/25 05:43:46;;;;;;;18.90;17.10;;;;;;;;;;5052157;28;20465;-86
2022/12/25 05:46:13;;;;;;;19.37;17.40;;;;;;;;;;5052298;28;20384;-85
2022/12/25 05:48:39;;;;;;;19.13;17.10;;;;;;;;;;5052064;28;20397;-85
2022/12/25 05:51:06;;;;;;;18.08;16.38;;;;;;;;;;5052034;28;20377;-85
2022/12/25 05:53:32;;;;;;;18.02;16.30;;;;;;;;;;5052065;28;20384;-85
2022/12/25 05:56:00;;;;;;;17.67;15.88;;;;;;;;;;5051859;28;20389;-85
2022/12/25 05:58:27;;;;;;;20.98;17.85;;;;;;;;;;5051880;28;20412;-85
2022/12/25 06:00:53;;;;;;;23.08;19.67;;;;;;;;;;5051628;28;20404;-85
2022/12/25 06:03:19;;;;;;;18.30;16.50;;;;;;;;;;5051907;28;20381;-85
2022/12/25 06:05:45;;;;;;;17.48;15.85;;;;;;;;;;5051641;28;20439;-85
2022/12/25 06:08:11;;;;;;;18.30;16.50;;;;;;;;;;5034017;28;20382;-85
2022/12/25 06:10:37;;;;;;;19.48;17.45;;;;;;;;;;5034138;28;20397;-86
2022/12/25 06:13:03;;;;;;;22.27;18.88;;;;;;;;;;5053023;28;20374;-85
2022/12/25 06:15:29;;;;;;;26.30;19.93;;;;;;;;;;5052275;28;20414;-85
2022/12/25 06:17:55;;;;;;;27.02;20.98;;;;;;;;;;5051655;28;20393;-86
2022/12/25 06:20:21;;;;;;;26.40;19.90;;;;;;;;;;5051285;28;20910;-86
2022/12/25 06:22:47;;;;;;;29.13;21.75;;;;;;;;;;5050717;28;20416;-85
2022/12/25 06:25:13;;;;;;;19.55;17.45;;;;;;;;;;5051614;28;20381;-85
2022/12/25 06:27:39;;;;;;;19.60;17.33;;;;;;;;;;5051360;28;20414;-85
2022/12/25 06:30:05;;;;;;;47.45;23.52;;;;;;;;;;5049969;28;20885;-85
2022/12/25 06:32:31;;;;;;;47.70;23.73;;;;;;;;;;5051065;28;20384;-85
2022/12/25 06:34:57;;;;;;;42.78;22.98;;;;;;;;;;5051008;28;20394;-86
2022/12/25 06:37:23;;;;;;;37.22;21.38;;;;;;;;;;5033408;28;20459;-85
2022/12/25 06:39:49;;;;;;;42.40;22.90;;;;;;;;;;5050671;28;20441;-85
2022/12/25 06:42:15;;;;;;;43.03;24.45;;;;;;;;;;5051514;28;20374;-84
2022/12/25 06:44:41;;;;;;;45.45;24.73;;;;;;;;;;5051332;28;20373;-84
2022/12/25 06:47:07;;;;;;;40.72;22.27;;;;;;;;;;5048319;28;20377;-84
2022/12/25 06:49:33;;;;;;;39.50;21.90;;;;;;;;;;5025463;28;20931;-85
2022/12/25 06:51:59;;;;;;;38.85;22.55;;;;;;;;;;5050548;28;20420;-84
2022/12/25 06:54:25;;;;;;;37.67;21.52;;;;;;;;;;5037850;28;20374;-85
2022/12/25 06:56:51;;;;;;;34.13;20.52;;;;;;;;;;5048095;28;20390;-85
2022/12/25 06:59:17;;;;;;;34.85;20.85;;;;;;;;;;5047978;28;20417;-84
2022/12/25 07:01:45;;;;;;;36.63;21.38;;;;;;;;;;5050934;28;20393;-85
2022/12/25 07:04:31;;;;;;;35.30;21.20;;;;;;;;;;5032979;28;20874;-85
2022/12/25 07:06:58;;;;;;;33.40;20.08;;;;;;;;;;5032328;28;20457;-87
2022/12/25 07:09:24;;;;;;;34.50;21.10;;;;;;;;;;5029781;28;20397;-87
2022/12/25 07:11:50;;;;;;;32.05;20.98;;;;;;;;;;5051089;28;20468;-86
2022/12/25 07:14:22;;;;;;;26.88;19.85;;;;;;;;;;5051095;28;20865;-86
2022/12/25 07:16:49;;;;;;;26.77;18.92;;;;;;;;;;5051177;28;20447;-88
2022/12/25 07:19:15;;;;;;;29.15;19.55;;;;;;;;;;5033044;28;20917;-87
2022/12/25 07:21:41;;;;;;;30.25;19.80;;;;;;;;;;5049565;28;20398;-86
2022/12/25 07:24:07;;;;;;;29.20;19.02;;;;;;;;;;5022813;28;20413;-87
2022/12/25 07:26:33;;;;;;;30.10;18.40;;;;;;;;;;5045034;28;20389;-87
2022/12/25 07:28:59;;;;;;;26.90;18.65;;;;;;;;;;5046266;28;20390;-86
2022/12/25 07:31:25;;;;;;;27.25;18.23;;;;;;;;;;5049259;28;20383;-86
2022/12/25 07:33:54;;;;;;;33.30;17.70;;;;;;;;;;5036876;28;20882;-86
2022/12/25 07:36:20;;;;;;;24.33;16.73;;;;;;;;;;5048065;28;20403;-85
2022/12/25 07:38:50;;;;;;;27.02;16.42;;;;;;;;;;5059640;28;20492;-87
2022/12/25 07:41:16;;;;;;;25.60;14.82;;;;;;;;;;5054040;28;20392;-86
2022/12/25 07:43:42;;;;;;;21.13;14.68;;;;;;;;;;5036473;28;20878;-86
2022/12/25 07:46:09;;;;;;;23.70;15.70;;;;;;;;;;5054520;28;20863;-85
2022/12/25 07:48:35;;;;;;;24.77;16.08;;;;;;;;;;5036449;28;20781;-86
2022/12/25 07:51:03;;;;;;;20.83;15.27;;;;;;;;;;5052646;28;20460;-85
2022/12/25 07:53:29;;;;;;;18.73;14.70;;;;;;;;;;5045727;28;20744;-87
2022/12/25 07:56:00;;;;;;;15.65;14.02;;;;;;;;;;5054008;28;20398;-86
2022/12/25 07:58:26;;;;;;;13.98;12.77;;;;;;;;;;5054147;28;20488;-86
2022/12/25 08:00:52;;;;;;;13.80;10.88;;;;;;;;;;5052829;28;20437;-85
2022/12/25 08:03:18;;;;;;;12.00;10.88;;;;;;;;;;5053691;28;20374;-88
2022/12/25 08:05:45;;;;;;;12.53;11.43;;;;;;;;;;5053859;28;20515;-85
2022/12/25 08:08:11;;;;;;;12.57;11.38;;;;;;;;;;5054042;28;20408;-86
2022/12/25 08:10:37;;;;;;;12.30;11.20;;;;;;;;;;5053321;28;20421;-85
2022/12/25 08:13:02;;;;;;;11.35;10.35;;;;;;;;;;5053952;28;20381;-85
2022/12/25 08:15:29;;;;;;;10.07;9.27;;;;;;;;;;5035893;28;20397;-85
2022/12/25 08:17:55;;;;;;;10.93;10.03;;;;;;;;;;5035555;28;20471;-86
2022/12/25 08:20:21;;;;;;;11.60;10.60;;;;;;;;;;5053656;28;20417;-85
2022/12/25 08:22:47;;;;;;;11.80;10.68;;;;;;;;;;5053674;28;20393;-85
2022/12/25 08:25:14;;;;;;;12.33;11.23;;;;;;;;;;5053703;28;20443;-86
2022/12/25 08:27:40;;;;;;;11.88;10.88;;;;;;;;;;5051585;28;20989;-84
2022/12/25 08:30:07;;;;;;;13.40;12.20;;;;;;;;;;5053182;28;20494;-86
2022/12/25 08:32:33;;;;;;;12.05;10.95;;;;;;;;;;5050666;28;20890;-89
2022/12/25 08:34:59;;;;;;;11.85;10.75;;;;;;;;;;5050548;28;20382;-87
2022/12/25 08:37:25;;;;;;;12.40;11.30;;;;;;;;;;5050680;28;20381;-87
2022/12/25 08:39:51;;;;;;;11.98;10.68;;;;;;;;;;5050686;28;20401;-87
2022/12/25 08:42:17;;;;;;;12.30;11.20;;;;;;;;;;5030979;28;20377;-85
2022/12/25 08:44:43;;;;;;;11.30;10.30;;;;;;;;;;5047998;28;20385;-86
2022/12/25 08:47:09;;;;;;;12.33;11.20;;;;;;;;;;5031929;28;20392;-87
2022/12/25 08:49:35;;;;;;;11.55;10.55;;;;;;;;;;5050029;28;20397;-85
2022/12/25 08:52:01;;;;;;;10.52;9.63;;;;;;;;;;5032583;28;20386;-86
2022/12/25 08:54:27;;;;;;;9.65;8.85;;;;;;;;;;5050067;28;20381;-86
2022/12/25 08:56:53;;;;;;;10.15;9.35;;;;;;;;;;5043996;28;20369;-86
2022/12/25 08:59:19;;;;;;;11.00;10.02;;;;;;;;;;5046503;28;20478;-87
2022/12/25 09:01:45;;;;;;;10.60;9.70;;;;;;;;;;5031851;28;20390;-85
2022/12/25 09:04:11;;;;;;;13.57;10.98;;;;;;;;;;5031877;28;20398;-86
2022/12/25 09:06:37;;;;;;;12.70;11.50;;;;;;;;;;5049535;28;20382;-84
2022/12/25 09:09:03;;;;;;;13.90;12.60;;;;;;;;;;5052458;28;20440;-84
2022/12/25 09:11:29;;;;;;;13.10;11.57;;;;;;;;;;5055669;28;20389;-85
2022/12/25 09:13:55;;;;;;;13.52;12.05;;;;;;;;;;5055065;28;20377;-87
2022/12/25 09:16:21;;;;;;;27.58;13.80;;;;;;;;;;5051770;28;20381;-87
2022/12/25 09:18:47;;;;;;;13.77;12.45;;;;;;;;;;5051899;28;20400;-87
2022/12/25 09:21:14;;;;;;;22.80;12.53;;;;;;;;;;5052424;28;20464;-87
2022/12/25 09:23:41;;;;;;;17.95;12.75;;;;;;;;;;5050314;28;20722;-86
2022/12/25 09:26:08;;;;;;;13.63;11.30;;;;;;;;;;5054757;28;20902;-85
2022/12/25 09:28:34;;;;;;;28.65;11.05;;;;;;;;;;5060602;28;20381;-87
2022/12/25 09:31:00;;;;;;;25.98;10.25;;;;;;;;;;5053573;28;20385;-84
2022/12/25 09:33:26;;;;;;;16.92;9.70;;;;;;;;;;5051889;28;20385;-84
2022/12/25 09:36:02;;;;;;;15.48;10.50;;;;;;;;;;5034034;28;20472;-84
2022/12/25 09:38:29;;;;;;;18.50;11.98;;;;;;;;;;5034024;28;20389;-83
2022/12/25 09:40:59;;;;;;;11.27;10.15;;;;;;;;;;5051881;28;20457;-84
2022/12/25 09:43:25;;;;;;;17.90;13.30;;;;;;;;;;5049604;28;20996;-84
2022/12/25 09:45:51;;;;;;;19.58;11.95;;;;;;;;;;5051526;28;20444;-84
2022/12/25 09:48:18;;;;;;;11.52;10.43;;;;;;;;;;5051753;28;20444;-84
2022/12/25 09:50:57;;;;;;;12.35;9.73;;;;;;;;;;5053487;28;20408;-84
2022/12/25 09:53:23;;;;;;;27.65;9.73;;;;;;;;;;5049001;28;20862;-84
2022/12/25 09:55:59;;;;;;;12.15;11.05;;;;;;;;;;5050129;28;20380;-84
2022/12/25 09:58:25;;;;;;;12.75;10.27;;;;;;;;;;5050537;28;20550;-85
2022/12/25 10:00:58;;;;;;;12.68;10.05;;;;;;;;;;5049648;28;20964;-85
2022/12/25 10:03:33;;;;;;;9.93;8.20;;;;;;;;;;5050521;28;20377;-85
2022/12/25 10:06:07;;;;;;;8.48;7.78;;;;;;;;;;5050378;28;20420;-85
2022/12/25 10:08:58;;;;;;;9.85;8.90;;;;;;;;;;5051211;28;20447;-85
2022/12/25 10:11:27;;;;;;;12.20;10.98;;;;;;;;;;5051762;28;20377;-85
2022/12/25 10:13:53;;;;;;;8.60;7.90;;;;;;;;;;5051765;28;20377;-84
2022/12/25 10:16:22;;;;;;;9.47;8.67;;;;;;;;;;5051651;28;20509;-84
2022/12/25 10:18:58;;;;;;;11.90;10.80;;;;;;;;;;5051513;28;20912;-84
2022/12/25 10:21:26;;;;;;;11.95;10.75;;;;;;;;;;5051691;28;20386;-85
2022/12/25 10:23:58;;;;;;;12.52;11.32;;;;;;;;;;5051672;28;20381;-84
2022/12/25 10:26:25;;;;;;;13.10;11.80;;;;;;;;;;5051601;28;20396;-85
2022/12/25 10:28:56;;;;;;;30.73;14.60;;;;;;;;;;5051592;28;20878;-85
2022/12/25 10:31:24;;;;;;;29.98;16.70;;;;;;;;;;5042758;28;20740;-84
2022/12/25 10:33:51;;;;;;;56.03;18.10;;;;;;;;;;5051505;28;20377;-85
2022/12/25 10:36:18;;;;;;;47.25;19.92;;;;;;;;;;5051433;28;20385;-84
2022/12/25 10:38:45;;;;;;;38.03;19.38;;;;;;;;;;5051268;28;20403;-84
2022/12/25 10:41:25;;;;;;;87.70;19.02;;;;;;;;;;5051515;28;20799;-85
2022/12/25 10:43:53;;;;;;;48.80;19.25;;;;;;;;;;5051359;28;20395;-85
2022/12/25 10:46:20;;;;;;;29.13;19.02;;;;;;;;;;5051460;28;20382;-85
2022/12/25 10:48:48;;;;;;;21.77;16.88;;;;;;;;;;5051239;28;20421;-85
2022/12/25 10:51:14;;;;;;;17.40;15.50;;;;;;;;;;5051413;28;20407;-84
2022/12/25 10:53:41;;;;;;;14.48;13.07;;;;;;;;;;5048392;28;20389;-84
2022/12/25 10:56:15;;;;;;;13.63;12.32;;;;;;;;;;5049395;28;20383;-84
2022/12/25 10:58:41;;;;;;;13.93;10.27;;;;;;;;;;5041717;28;20436;-85
2022/12/25 11:01:07;;;;;;;9.95;9.05;;;;;;;;;;5049455;28;20402;-85
2022/12/25 11:03:37;;;;;;;10.52;8.07;;;;;;;;;;5050668;28;20449;-84
2022/12/25 11:06:03;;;;;;;8.60;7.90;;;;;;;;;;5051081;28;20921;-85
2022/12/25 11:08:30;;;;;;;10.02;9.13;;;;;;;;;;5051019;28;20387;-85
2022/12/25 11:11:07;;;;;;;40.88;10.70;;;;;;;;;;5048025;28;20862;-84
2022/12/25 11:13:35;;;;;;;23.73;11.70;;;;;;;;;;5051932;28;20377;-84
2022/12/25 11:16:13;;;;;;;34.72;13.43;;;;;;;;;;5054953;28;20936;-84
2022/12/25 11:18:47;;;;;;;24.17;13.07;;;;;;;;;;5056154;28;20502;-84
2022/12/25 11:21:23;;;;;;;47.53;14.13;;;;;;;;;;5055533;28;20388;-85
2022/12/25 11:23:54;;;;;;;16.05;13.20;;;;;;;;;;5037501;28;20855;-84
2022/12/25 11:26:21;;;;;;;15.25;12.30;;;;;;;;;;5054789;28;20377;-85
2022/12/25 11:28:48;;;;;;;12.88;11.55;;;;;;;;;;5054801;28;20378;-84
2022/12/25 11:31:18;;;;;;;11.50;10.50;;;;;;;;;;5054680;28;20878;-84
2022/12/25 11:33:57;;;;;;;11.57;10.52;;;;;;;;;;5054404;28;20860;-84
2022/12/25 11:36:58;;;;;;;10.98;9.98;;;;;;;;;;5054577;28;20531;-85
2022/12/25 11:39:27;;;;;;;13.27;11.57;;;;;;;;;;4954180;29;20425;-85
2022/12/25 11:41:56;;;;;;;14.02;12.60;;;;;;;;;;5023675;28;20381;-85
2022/12/25 11:44:34;;;;;;;13.20;11.85;;;;;;;;;;5054364;28;20733;-85
2022/12/25 11:47:03;;;;;;;12.60;11.30;;;;;;;;;;5054434;28;20913;-85
2022/12/25 11:49:29;;;;;;;12.65;10.10;;;;;;;;;;5054436;28;20385;-85
2022/12/25 11:51:56;;;;;;;10.18;9.27;;;;;;;;;;5054381;28;20389;-84
2022/12/25 11:54:22;;;;;;;9.82;8.98;;;;;;;;;;5056030;28;20373;-84
2022/12/25 11:56:48;;;;;;;10.37;9.43;;;;;;;;;;5054251;28;20746;-84
2022/12/25 11:59:24;;;;;;;9.63;8.77;;;;;;;;;;5054021;28;20448;-84
2022/12/25 12:02:03;;;;;;;9.57;8.77;;;;;;;;;;5054191;28;20428;-85
2022/12/25 12:04:39;;;;;;;10.20;9.30;;;;;;;;;;5054077;28;20387;-84
2022/12/25 12:07:12;;;;;;;10.25;9.35;;;;;;;;;;5054028;28;20870;-84
2022/12/25 12:09:46;;;;;;;11.10;10.03;;;;;;;;;;5053830;28;20425;-84
2022/12/25 12:12:11;;;;;;;12.30;11.00;;;;;;;;;;5054007;28;20384;-84
2022/12/25 12:14:43;;;;;;;11.43;10.32;;;;;;;;;;5053868;28;20385;-84
2022/12/25 12:17:14;;;;;;;10.50;9.50;;;;;;;;;;5053922;28;20393;-84
2022/12/25 12:19:40;;;;;;;10.70;9.70;;;;;;;;;;5053610;28;20401;-85
2022/12/25 12:22:06;;;;;;;11.55;10.45;;;;;;;;;;5053852;28;20387;-84
2022/12/25 12:24:40;;;;;;;10.07;9.17;;;;;;;;;;5053539;28;20382;-84
2022/12/25 12:27:13;;;;;;;10.50;9.60;;;;;;;;;;5053672;28;20388;-84
2022/12/25 12:29:48;;;;;;;9.60;8.80;;;;;;;;;;5053445;28;20957;-85
2022/12/25 12:32:19;;;;;;;11.63;10.52;;;;;;;;;;5053506;28;20385;-84
2022/12/25 12:34:49;;;;;;;12.47;11.17;;;;;;;;;;5053462;28;20439;-85
2022/12/25 12:37:17;;;;;;;13.43;12.13;;;;;;;;;;5053887;28;20388;-84
2022/12/25 12:39:44;;;;;;;11.82;10.75;;;;;;;;;;5053434;28;20435;-84
2022/12/25 12:42:30;;;;;;;11.10;10.10;;;;;;;;;;5053399;28;20385;-84
2022/12/25 12:44:57;;;;;;;10.30;9.40;;;;;;;;;;5053301;28;20423;-85
2022/12/25 12:47:29;;;;;;;10.90;9.90;;;;;;;;;;5053266;28;20389;-84
2022/12/25 12:49:59;;;;;;;10.60;9.68;;;;;;;;;;5053255;28;20381;-84
2022/12/25 12:52:32;;;;;;;12.07;10.87;;;;;;;;;;5053151;28;20427;-85
2022/12/25 12:55:00;;;;;;;11.67;10.50;;;;;;;;;;5053032;28;20381;-84
2022/12/25 12:57:28;;;;;;;13.00;11.70;;;;;;;;;;5050103;28;20381;-84
2022/12/25 12:59:56;;;;;;;13.98;12.50;;;;;;;;;;5049189;28;20482;-84
2022/12/25 13:02:34;;;;;;;18.85;14.48;;;;;;;;;;5049600;28;20569;-84
2022/12/25 13:05:06;;;;;;;18.90;15.43;;;;;;;;;;5051736;28;20381;-85
2022/12/25 13:07:49;;;;;;;21.77;15.30;;;;;;;;;;5051153;28;20377;-84
2022/12/25 13:10:32;;;;;;;19.67;15.75;;;;;;;;;;5053073;28;20444;-84
2022/12/25 13:13:00;;;;;;;22.90;16.77;;;;;;;;;;5052686;28;20439;-84
2022/12/25 13:15:28;;;;;;;20.90;16.43;;;;;;;;;;5052834;28;20385;-84
2022/12/25 13:17:54;;;;;;;19.52;15.52;;;;;;;;;;5052695;28;20378;-84
2022/12/25 13:20:28;;;;;;;15.55;13.25;;;;;;;;;;5052560;28;20462;-85
2022/12/25 13:22:54;;;;;;;14.27;12.25;;;;;;;;;;5045270;28;20418;-85
2022/12/25 13:25:21;;;;;;;13.00;11.60;;;;;;;;;;5052695;28;20413;-84
2022/12/25 13:27:54;;;;;;;12.35;11.13;;;;;;;;;;5052651;28;20420;-84
2022/12/25 13:30:20;;;;;;;12.15;10.95;;;;;;;;;;5052455;28;20405;-84
2022/12/25 13:32:47;;;;;;;11.82;10.63;;;;;;;;;;5052432;28;20435;-84
2022/12/25 13:35:14;;;;;;;11.13;10.13;;;;;;;;;;5052376;28;20500;-84
2022/12/25 13:37:40;;;;;;;11.88;10.68;;;;;;;;;;5051589;28;20378;-84
2022/12/25 13:40:07;;;;;;;11.75;10.63;;;;;;;;;;5052077;28;20412;-85
2022/12/25 13:42:35;;;;;;;12.30;11.07;;;;;;;;;;5052139;28;20910;-85
2022/12/25 13:45:05;;;;;;;12.35;11.05;;;;;;;;;;5052381;28;20435;-84
2022/12/25 13:47:31;;;;;;;13.80;12.40;;;;;;;;;;5052255;28;20373;-84
2022/12/25 13:49:58;;;;;;;14.63;12.70;;;;;;;;;;5034323;28;20430;-84
2022/12/25 13:52:32;;;;;;;15.35;13.38;;;;;;;;;;5034302;28;20433;-84
2022/12/25 13:55:02;;;;;;;13.32;12.02;;;;;;;;;;5052036;28;20385;-85
2022/12/25 13:57:36;;;;;;;13.00;11.70;;;;;;;;;;5034467;28;20396;-84
2022/12/25 14:00:03;;;;;;;15.35;12.82;;;;;;;;;;5051749;28;20937;-84
2022/12/25 14:02:31;;;;;;;13.47;12.17;;;;;;;;;;5051987;28;20858;-85
2022/12/25 14:04:57;;;;;;;13.97;12.47;;;;;;;;;;5051936;28;20438;-84
2022/12/25 14:07:23;;;;;;;16.95;14.07;;;;;;;;;;5052002;28;20477;-84
2022/12/25 14:09:53;;;;;;;17.60;14.07;;;;;;;;;;5051655;28;20384;-84
2022/12/25 14:12:20;;;;;;;17.20;14.07;;;;;;;;;;5034007;28;20469;-84
2022/12/25 14:14:46;;;;;;;15.60;13.23;;;;;;;;;;5051795;28;20877;-84
2022/12/25 14:17:12;;;;;;;15.27;13.57;;;;;;;;;;5051813;28;20435;-85
2022/12/25 14:19:38;;;;;;;15.07;13.48;;;;;;;;;;5051453;28;20405;-85
2022/12/25 14:22:09;;;;;;;14.80;13.30;;;;;;;;;;5051706;28;20427;-84
2022/12/25 14:24:35;;;;;;;14.40;13.00;;;;;;;;;;5051734;28;20455;-84
2022/12/25 14:27:02;;;;;;;14.82;13.10;;;;;;;;;;5051699;28;20731;-84
2022/12/25 14:29:31;;;;;;;13.68;12.27;;;;;;;;;;5051599;28;20457;-84
2022/12/25 14:31:59;;;;;;;14.75;13.27;;;;;;;;;;5051575;28;20378;-84
2022/12/25 14:34:26;;;;;;;15.15;13.57;;;;;;;;;;5051637;28;20381;-84
2022/12/25 14:36:52;;;;;;;15.05;13.43;;;;;;;;;;5051525;28;20392;-84
2022/12/25 14:39:32;;;;;;;14.90;13.07;;;;;;;;;;5051489;28;20409;-84
2022/12/25 14:41:58;;;;;;;15.80;14.10;;;;;;;;;;5051444;28;20373;-85
2022/12/25 14:44:27;;;;;;;15.00;13.50;;;;;;;;;;5051464;28;20409;-84
2022/12/25 14:47:13;;;;;;;15.45;13.85;;;;;;;;;;5051475;28;20480;-84
2022/12/25 14:49:39;;;;;;;15.30;13.70;;;;;;;;;;5055554;28;20424;-84
2022/12/25 14:52:20;;;;;;;16.33;14.63;;;;;;;;;;5044174;28;20390;-85
2022/12/25 14:54:48;;;;;;;19.98;17.55;;;;;;;;;;5043580;28;20878;-84
2022/12/25 14:57:19;;;;;;;23.10;19.73;;;;;;;;;;5041905;28;20395;-84
2022/12/25 14:59:45;;;;;;;22.08;19.65;;;;;;;;;;5055092;28;20460;-84
2022/12/25 15:02:15;;;;;;;18.80;17.00;;;;;;;;;;5052840;28;20377;-84
2022/12/25 15:04:43;;;;;;;17.93;16.17;;;;;;;;;;5055016;28;20392;-84
2022/12/25 15:07:24;;;;;;;17.92;16.13;;;;;;;;;;5055064;28;20373;-85
2022/12/25 15:09:50;;;;;;;17.42;15.73;;;;;;;;;;5049542;28;20423;-84
2022/12/25 15:12:16;;;;;;;19.48;17.45;;;;;;;;;;5047515;28;20408;-85
2022/12/25 15:14:42;;;;;;;19.77;17.67;;;;;;;;;;5055020;28;20738;-84
2022/12/25 15:17:11;;;;;;;19.27;17.17;;;;;;;;;;5055061;28;20385;-84
2022/12/25 15:19:37;;;;;;;18.23;16.33;;;;;;;;;;5054797;28;20491;-84
2022/12/25 15:22:03;;;;;;;19.52;17.10;;;;;;;;;;5054972;28;20425;-84
2022/12/25 15:24:29;;;;;;;16.75;15.07;;;;;;;;;;5058448;28;20423;-85
2022/12/25 15:26:58;;;;;;;18.93;16.10;;;;;;;;;;5046647;28;20382;-84
2022/12/25 15:29:24;;;;;;;17.25;15.48;;;;;;;;;;5054799;28;20523;-84
2022/12/25 15:31:50;;;;;;;17.83;16.00;;;;;;;;;;5054597;28;20922;-84
2022/12/25 15:34:19;;;;;;;19.13;17.13;;;;;;;;;;5054671;28;20393;-84
2022/12/25 15:36:45;;;;;;;19.30;17.23;;;;;;;;;;5054684;28;20782;-84
2022/12/25 15:39:11;;;;;;;17.58;15.88;;;;;;;;;;5054529;28;20401;-84
2022/12/25 15:44:22;;;;;;;19.02;17.02;;;;;;;;;;5054591;28;20436;-84
2022/12/25 15:46:48;;;;;;;18.58;16.67;;;;;;;;;;5054504;28;20377;-85
2022/12/25 15:49:15;;;;;;;19.30;17.40;;;;;;;;;;5054484;28;20384;-85
2022/12/25 15:51:41;;;;;;;18.37;16.57;;;;;;;;;;5054457;28;20464;-85
2022/12/25 15:54:08;;;;;;;18.23;16.42;;;;;;;;;;5054324;28;20385;-85
2022/12/25 15:56:45;;;;;;;17.20;15.50;;;;;;;;;;5054399;28;20381;-85
2022/12/25 15:59:11;;;;;;;17.67;15.97;;;;;;;;;;5053517;28;20502;-86
2022/12/25 16:01:37;;;;;;;16.42;14.82;;;;;;;;;;5054024;28;20472;-85
2022/12/25 16:04:03;;;;;;;16.17;14.55;;;;;;;;;;5054434;28;20738;-85
2022/12/25 16:06:29;;;;;;;16.85;15.05;;;;;;;;;;5054152;28;20388;-85
2022/12/25 16:08:55;;;;;;;17.08;15.38;;;;;;;;;;5054050;28;20859;-85
2022/12/25 16:11:22;;;;;;;18.00;16.13;;;;;;;;;;5053951;28;20472;-84
2022/12/25 16:13:48;;;;;;;17.48;15.60;;;;;;;;;;5054008;28;20389;-84